sensor_id;sensor_type;location;lat;lon;timestamp;P1;durP1;ratioP1;P2;durP2;ratioP2
9072;SDS011;4572;41.642;25.370;2022-08-18T00:01:20;7.17;;;5.62;;
9072;SDS011;4572;41.642;25.370;2022-08-18T00:03:50;6.05;;;5.45;;
9072;SDS011;4572;41.642;25.370;2022-08-18T00:06:18;5.67;;;5.17;;
9072;SDS011;4572;41.642;25.370;2022-08-18T00:08:46;6.42;;;5.83;;
9072;SDS011;4572;41.642;25.370;2022-08-18T00:11:14;6.83;;;6.22;;
9072;SDS011;4572;41.642;25.370;2022-08-18T00:13:43;6.33;;;5.73;;
9072;SDS011;4572;41.642;25.370;2022-08-18T00:16:11;6.40;;;5.55;;
9072;SDS011;4572;41.642;25.370;2022-08-18T00:18:39;6.12;;;5.53;;
9072;SDS011;4572;41.642;25.370;2022-08-18T00:21:07;6.10;;;5.50;;
9072;SDS011;4572;41.642;25.370;2022-08-18T00:23:35;7.40;;;5.90;;
9072;SDS011;4572;41.642;25.370;2022-08-18T00:26:04;6.10;;;5.60;;
9072;SDS011;4572;41.642;25.370;2022-08-18T00:31:00;5.97;;;5.47;;
9072;SDS011;4572;41.642;25.370;2022-08-18T00:33:28;5.97;;;5.47;;
9072;SDS011;4572;41.642;25.370;2022-08-18T00:35:56;7.78;;;5.95;;
9072;SDS011;4572;41.642;25.370;2022-08-18T00:38:24;5.60;;;5.10;;
9072;SDS011;4572;41.642;25.370;2022-08-18T00:40:54;6.30;;;5.70;;
9072;SDS011;4572;41.642;25.370;2022-08-18T00:43:23;5.87;;;5.37;;
9072;SDS011;4572;41.642;25.370;2022-08-18T00:45:52;6.13;;;5.50;;
9072;SDS011;4572;41.642;25.370;2022-08-18T00:48:20;5.70;;;5.20;;
9072;SDS011;4572;41.642;25.370;2022-08-18T00:50:48;7.67;;;5.83;;
9072;SDS011;4572;41.642;25.370;2022-08-18T00:53:18;6.10;;;5.58;;
9072;SDS011;4572;41.642;25.370;2022-08-18T00:55:47;8.53;;;5.83;;
9072;SDS011;4572;41.642;25.370;2022-08-18T00:58:18;6.20;;;5.60;;
9072;SDS011;4572;41.642;25.370;2022-08-18T01:00:47;7.13;;;5.90;;
9072;SDS011;4572;41.642;25.370;2022-08-18T01:03:17;6.15;;;5.65;;
9072;SDS011;4572;41.642;25.370;2022-08-18T01:05:47;5.67;;;5.05;;
9072;SDS011;4572;41.642;25.370;2022-08-18T01:08:15;6.60;;;6.00;;
9072;SDS011;4572;41.642;25.370;2022-08-18T01:10:44;8.38;;;5.78;;
9072;SDS011;4572;41.642;25.370;2022-08-18T01:13:12;6.27;;;5.67;;
9072;SDS011;4572;41.642;25.370;2022-08-18T01:15:40;8.37;;;6.33;;
9072;SDS011;4572;41.642;25.370;2022-08-18T01:18:10;6.73;;;6.03;;
9072;SDS011;4572;41.642;25.370;2022-08-18T01:20:58;5.90;;;5.43;;
9072;SDS011;4572;41.642;25.370;2022-08-18T01:23:46;6.83;;;6.07;;
9072;SDS011;4572;41.642;25.370;2022-08-18T01:26:15;7.73;;;6.20;;
9072;SDS011;4572;41.642;25.370;2022-08-18T01:28:44;6.57;;;5.53;;
9072;SDS011;4572;41.642;25.370;2022-08-18T01:31:27;6.90;;;5.87;;
9072;SDS011;4572;41.642;25.370;2022-08-18T01:33:42;7.22;;;5.92;;
9072;SDS011;4572;41.642;25.370;2022-08-18T01:36:12;6.40;;;5.80;;
9072;SDS011;4572;41.642;25.370;2022-08-18T01:38:42;6.40;;;5.77;;
9072;SDS011;4572;41.642;25.370;2022-08-18T01:41:10;6.90;;;5.45;;
9072;SDS011;4572;41.642;25.370;2022-08-18T01:43:38;6.97;;;6.28;;
9072;SDS011;4572;41.642;25.370;2022-08-18T01:46:06;6.50;;;5.17;;
9072;SDS011;4572;41.642;25.370;2022-08-18T01:48:35;6.97;;;6.20;;
9072;SDS011;4572;41.642;25.370;2022-08-18T01:51:04;7.70;;;6.00;;
9072;SDS011;4572;41.642;25.370;2022-08-18T01:53:33;6.17;;;5.50;;
9072;SDS011;4572;41.642;25.370;2022-08-18T01:56:01;6.17;;;5.33;;
9072;SDS011;4572;41.642;25.370;2022-08-18T01:58:31;7.23;;;6.03;;
9072;SDS011;4572;41.642;25.370;2022-08-18T02:00:59;8.43;;;5.97;;
9072;SDS011;4572;41.642;25.370;2022-08-18T02:03:29;6.70;;;5.90;;
9072;SDS011;4572;41.642;25.370;2022-08-18T02:05:59;7.03;;;6.23;;
9072;SDS011;4572;41.642;25.370;2022-08-18T02:08:28;6.93;;;6.30;;
9072;SDS011;4572;41.642;25.370;2022-08-18T02:10:56;6.50;;;5.90;;
9072;SDS011;4572;41.642;25.370;2022-08-18T02:13:24;6.40;;;5.80;;
9072;SDS011;4572;41.642;25.370;2022-08-18T02:15:52;6.63;;;6.00;;
9072;SDS011;4572;41.642;25.370;2022-08-18T02:18:21;7.67;;;5.87;;
9072;SDS011;4572;41.642;25.370;2022-08-18T02:20:50;11.33;;;8.70;;
9072;SDS011;4572;41.642;25.370;2022-08-18T02:23:18;6.83;;;5.90;;
9072;SDS011;4572;41.642;25.370;2022-08-18T02:25:46;9.30;;;6.37;;
9072;SDS011;4572;41.642;25.370;2022-08-18T02:28:14;6.57;;;5.87;;
9072;SDS011;4572;41.642;25.370;2022-08-18T02:30:42;6.67;;;5.43;;
9072;SDS011;4572;41.642;25.370;2022-08-18T02:33:10;7.87;;;5.73;;
9072;SDS011;4572;41.642;25.370;2022-08-18T02:35:38;7.23;;;5.83;;
9072;SDS011;4572;41.642;25.370;2022-08-18T02:38:08;6.47;;;5.87;;
9072;SDS011;4572;41.642;25.370;2022-08-18T02:40:36;6.67;;;5.97;;
9072;SDS011;4572;41.642;25.370;2022-08-18T02:43:05;6.50;;;5.90;;
9072;SDS011;4572;41.642;25.370;2022-08-18T02:45:35;7.50;;;6.20;;
9072;SDS011;4572;41.642;25.370;2022-08-18T02:48:05;7.50;;;6.23;;
9072;SDS011;4572;41.642;25.370;2022-08-18T02:50:33;7.30;;;6.37;;
9072;SDS011;4572;41.642;25.370;2022-08-18T02:53:05;6.73;;;6.13;;
9072;SDS011;4572;41.642;25.370;2022-08-18T02:55:33;6.30;;;5.73;;
9072;SDS011;4572;41.642;25.370;2022-08-18T02:58:01;6.70;;;5.93;;
9072;SDS011;4572;41.642;25.370;2022-08-18T03:00:29;6.43;;;5.83;;
9072;SDS011;4572;41.642;25.370;2022-08-18T03:02:57;6.97;;;6.37;;
9072;SDS011;4572;41.642;25.370;2022-08-18T03:05:26;6.90;;;6.23;;
9072;SDS011;4572;41.642;25.370;2022-08-18T03:07:55;7.27;;;6.47;;
9072;SDS011;4572;41.642;25.370;2022-08-18T03:10:25;9.40;;;6.30;;
9072;SDS011;4572;41.642;25.370;2022-08-18T03:12:54;8.07;;;6.43;;
9072;SDS011;4572;41.642;25.370;2022-08-18T03:15:23;7.33;;;6.40;;
9072;SDS011;4572;41.642;25.370;2022-08-18T03:17:51;6.80;;;6.20;;
9072;SDS011;4572;41.642;25.370;2022-08-18T03:20:19;8.20;;;6.13;;
9072;SDS011;4572;41.642;25.370;2022-08-18T03:22:47;8.13;;;7.33;;
9072;SDS011;4572;41.642;25.370;2022-08-18T03:25:15;6.77;;;6.17;;
9072;SDS011;4572;41.642;25.370;2022-08-18T03:27:44;8.00;;;6.90;;
9072;SDS011;4572;41.642;25.370;2022-08-18T03:30:12;6.37;;;5.73;;
9072;SDS011;4572;41.642;25.370;2022-08-18T03:32:40;8.67;;;6.10;;
9072;SDS011;4572;41.642;25.370;2022-08-18T03:35:08;7.60;;;6.17;;
9072;SDS011;4572;41.642;25.370;2022-08-18T03:37:36;7.33;;;6.60;;
9072;SDS011;4572;41.642;25.370;2022-08-18T03:40:05;7.30;;;6.60;;
9072;SDS011;4572;41.642;25.370;2022-08-18T03:42:33;7.03;;;6.23;;
9072;SDS011;4572;41.642;25.370;2022-08-18T03:45:02;7.70;;;6.90;;
9072;SDS011;4572;41.642;25.370;2022-08-18T03:47:30;8.17;;;7.37;;
9072;SDS011;4572;41.642;25.370;2022-08-18T03:49:58;8.70;;;7.10;;
9072;SDS011;4572;41.642;25.370;2022-08-18T03:52:26;7.77;;;6.60;;
9072;SDS011;4572;41.642;25.370;2022-08-18T03:54:55;12.47;;;7.20;;
9072;SDS011;4572;41.642;25.370;2022-08-18T03:57:23;9.67;;;7.23;;
9072;SDS011;4572;41.642;25.370;2022-08-18T03:59:51;6.83;;;6.13;;
9072;SDS011;4572;41.642;25.370;2022-08-18T04:02:20;7.67;;;6.97;;
9072;SDS011;4572;41.642;25.370;2022-08-18T04:04:49;8.27;;;6.50;;
9072;SDS011;4572;41.642;25.370;2022-08-18T04:07:19;6.80;;;6.10;;
9072;SDS011;4572;41.642;25.370;2022-08-18T04:09:47;7.30;;;6.60;;
9072;SDS011;4572;41.642;25.370;2022-08-18T04:12:15;7.90;;;7.17;;
9072;SDS011;4572;41.642;25.370;2022-08-18T04:14:45;8.20;;;7.23;;
9072;SDS011;4572;41.642;25.370;2022-08-18T04:17:13;8.57;;;7.07;;
9072;SDS011;4572;41.642;25.370;2022-08-18T04:19:41;7.77;;;7.07;;
9072;SDS011;4572;41.642;25.370;2022-08-18T04:22:10;7.20;;;6.50;;
9072;SDS011;4572;41.642;25.370;2022-08-18T04:24:38;7.67;;;6.53;;
9072;SDS011;4572;41.642;25.370;2022-08-18T04:27:06;10.90;;;6.97;;
9072;SDS011;4572;41.642;25.370;2022-08-18T04:29:34;8.17;;;7.37;;
9072;SDS011;4572;41.642;25.370;2022-08-18T04:32:03;8.60;;;7.73;;
9072;SDS011;4572;41.642;25.370;2022-08-18T04:34:31;7.67;;;6.97;;
9072;SDS011;4572;41.642;25.370;2022-08-18T04:36:59;8.03;;;6.87;;
9072;SDS011;4572;41.642;25.370;2022-08-18T04:39:28;10.13;;;7.77;;
9072;SDS011;4572;41.642;25.370;2022-08-18T04:41:56;8.50;;;7.70;;
9072;SDS011;4572;41.642;25.370;2022-08-18T04:44:27;8.00;;;6.60;;
9072;SDS011;4572;41.642;25.370;2022-08-18T04:46:55;9.83;;;7.60;;
9072;SDS011;4572;41.642;25.370;2022-08-18T04:49:24;9.90;;;8.90;;
9072;SDS011;4572;41.642;25.370;2022-08-18T04:51:53;9.43;;;8.53;;
9072;SDS011;4572;41.642;25.370;2022-08-18T04:54:39;9.90;;;8.97;;
9072;SDS011;4572;41.642;25.370;2022-08-18T04:57:08;10.53;;;8.70;;
9072;SDS011;4572;41.642;25.370;2022-08-18T04:59:37;11.03;;;8.70;;
9072;SDS011;4572;41.642;25.370;2022-08-18T05:02:06;11.60;;;9.73;;
9072;SDS011;4572;41.642;25.370;2022-08-18T05:04:35;10.10;;;9.20;;
9072;SDS011;4572;41.642;25.370;2022-08-18T05:07:04;14.87;;;10.10;;
9072;SDS011;4572;41.642;25.370;2022-08-18T05:09:32;9.83;;;8.93;;
9072;SDS011;4572;41.642;25.370;2022-08-18T05:12:01;11.33;;;9.23;;
9072;SDS011;4572;41.642;25.370;2022-08-18T05:14:30;11.63;;;9.00;;
9072;SDS011;4572;41.642;25.370;2022-08-18T05:16:59;12.82;;;9.18;;
9072;SDS011;4572;41.642;25.370;2022-08-18T05:19:27;11.10;;;9.33;;
9072;SDS011;4572;41.642;25.370;2022-08-18T05:21:57;10.30;;;9.20;;
9072;SDS011;4572;41.642;25.370;2022-08-18T05:24:26;11.27;;;8.70;;
9072;SDS011;4572;41.642;25.370;2022-08-18T05:26:54;10.83;;;9.30;;
9072;SDS011;4572;41.642;25.370;2022-08-18T05:29:22;11.30;;;8.33;;
9072;SDS011;4572;41.642;25.370;2022-08-18T05:31:51;11.10;;;8.53;;
9072;SDS011;4572;41.642;25.370;2022-08-18T05:34:20;9.68;;;8.65;;
9072;SDS011;4572;41.642;25.370;2022-08-18T05:37:00;9.25;;;8.10;;
9072;SDS011;4572;41.642;25.370;2022-08-18T05:39:28;12.63;;;8.85;;
9072;SDS011;4572;41.642;25.370;2022-08-18T05:41:59;26.80;;;9.97;;
9072;SDS011;4572;41.642;25.370;2022-08-18T05:44:28;12.45;;;9.85;;
9072;SDS011;4572;41.642;25.370;2022-08-18T05:46:57;14.47;;;9.98;;
9072;SDS011;4572;41.642;25.370;2022-08-18T05:49:26;9.85;;;8.85;;
9072;SDS011;4572;41.642;25.370;2022-08-18T05:54:33;10.15;;;8.50;;
9072;SDS011;4572;41.642;25.370;2022-08-18T05:57:20;9.15;;;8.25;;
9072;SDS011;4572;41.642;25.370;2022-08-18T05:59:49;9.48;;;8.48;;
9072;SDS011;4572;41.642;25.370;2022-08-18T06:02:20;10.25;;;9.18;;
9072;SDS011;4572;41.642;25.370;2022-08-18T06:07:25;10.28;;;8.45;;
9072;SDS011;4572;41.642;25.370;2022-08-18T06:09:55;16.73;;;10.03;;
9072;SDS011;4572;41.642;25.370;2022-08-18T06:15:03;11.63;;;10.43;;
9072;SDS011;4572;41.642;25.370;2022-08-18T06:17:35;18.07;;;15.03;;
9072;SDS011;4572;41.642;25.370;2022-08-18T06:20:05;9.48;;;8.58;;
9072;SDS011;4572;41.642;25.370;2022-08-18T06:22:35;26.33;;;22.25;;
9072;SDS011;4572;41.642;25.370;2022-08-18T06:25:08;12.25;;;10.50;;
9072;SDS011;4572;41.642;25.370;2022-08-18T06:27:37;16.55;;;11.25;;
9072;SDS011;4572;41.642;25.370;2022-08-18T06:30:08;12.30;;;10.08;;
9072;SDS011;4572;41.642;25.370;2022-08-18T06:32:41;14.38;;;9.05;;
9072;SDS011;4572;41.642;25.370;2022-08-18T06:35:13;8.93;;;8.03;;
9072;SDS011;4572;41.642;25.370;2022-08-18T06:37:40;9.68;;;8.63;;
9072;SDS011;4572;41.642;25.370;2022-08-18T06:43:06;9.58;;;8.68;;
9072;SDS011;4572;41.642;25.370;2022-08-18T06:48:11;11.70;;;8.68;;
9072;SDS011;4572;41.642;25.370;2022-08-18T06:50:40;8.75;;;7.97;;
9072;SDS011;4572;41.642;25.370;2022-08-18T06:55:51;9.85;;;8.15;;
9072;SDS011;4572;41.642;25.370;2022-08-18T06:58:21;11.68;;;9.20;;
9072;SDS011;4572;41.642;25.370;2022-08-18T07:00:54;20.48;;;17.60;;
9072;SDS011;4572;41.642;25.370;2022-08-18T07:03:23;11.43;;;10.20;;
9072;SDS011;4572;41.642;25.370;2022-08-18T07:08:35;9.50;;;8.20;;
9072;SDS011;4572;41.642;25.370;2022-08-18T07:11:17;14.75;;;13.20;;
9072;SDS011;4572;41.642;25.370;2022-08-18T07:13:43;12.35;;;9.83;;
9072;SDS011;4572;41.642;25.370;2022-08-18T07:18:51;11.85;;;8.98;;
9072;SDS011;4572;41.642;25.370;2022-08-18T07:21:26;12.70;;;9.00;;
9072;SDS011;4572;41.642;25.370;2022-08-18T07:23:58;9.05;;;7.90;;
9072;SDS011;4572;41.642;25.370;2022-08-18T07:29:11;9.78;;;8.75;;
9072;SDS011;4572;41.642;25.370;2022-08-18T07:31:41;8.55;;;7.80;;
9072;SDS011;4572;41.642;25.370;2022-08-18T07:36:54;9.98;;;8.93;;
9072;SDS011;4572;41.642;25.370;2022-08-18T07:39:24;10.40;;;8.10;;
9072;SDS011;4572;41.642;25.370;2022-08-18T07:44:32;12.85;;;8.45;;
9072;SDS011;4572;41.642;25.370;2022-08-18T07:49:35;8.95;;;7.92;;
9072;SDS011;4572;41.642;25.370;2022-08-18T07:52:05;8.95;;;8.05;;
9072;SDS011;4572;41.642;25.370;2022-08-18T07:54:40;9.98;;;8.23;;
9072;SDS011;4572;41.642;25.370;2022-08-18T07:59:46;8.68;;;7.80;;
9072;SDS011;4572;41.642;25.370;2022-08-18T08:02:21;11.05;;;7.42;;
9072;SDS011;4572;41.642;25.370;2022-08-18T08:07:25;9.50;;;7.28;;
9072;SDS011;4572;41.642;25.370;2022-08-18T08:09:57;7.17;;;6.47;;
9072;SDS011;4572;41.642;25.370;2022-08-18T08:12:35;6.60;;;5.95;;
9072;SDS011;4572;41.642;25.370;2022-08-18T08:17:36;8.33;;;5.75;;
9072;SDS011;4572;41.642;25.370;2022-08-18T08:22:48;6.42;;;4.53;;
9072;SDS011;4572;41.642;25.370;2022-08-18T08:25:17;5.62;;;5.08;;
9072;SDS011;4572;41.642;25.370;2022-08-18T08:27:49;4.50;;;4.05;;
9072;SDS011;4572;41.642;25.370;2022-08-18T08:32:56;4.72;;;4.33;;
9072;SDS011;4572;41.642;25.370;2022-08-18T08:35:27;4.95;;;4.45;;
9072;SDS011;4572;41.642;25.370;2022-08-18T08:37:56;6.10;;;4.50;;
9072;SDS011;4572;41.642;25.370;2022-08-18T08:43:02;4.00;;;3.70;;
9072;SDS011;4572;41.642;25.370;2022-08-18T08:48:07;4.55;;;4.15;;
9072;SDS011;4572;41.642;25.370;2022-08-18T08:50:39;4.55;;;4.15;;
9072;SDS011;4572;41.642;25.370;2022-08-18T08:53:09;4.80;;;4.40;;
9072;SDS011;4572;41.642;25.370;2022-08-18T08:55:41;7.72;;;4.37;;
9072;SDS011;4572;41.642;25.370;2022-08-18T08:58:11;5.12;;;4.72;;
9072;SDS011;4572;41.642;25.370;2022-08-18T09:03:19;7.22;;;4.70;;
9072;SDS011;4572;41.642;25.370;2022-08-18T09:05:50;4.50;;;4.05;;
9072;SDS011;4572;41.642;25.370;2022-08-18T09:08:34;5.05;;;4.55;;
9072;SDS011;4572;41.642;25.370;2022-08-18T09:14:06;4.70;;;4.00;;
9072;SDS011;4572;41.642;25.370;2022-08-18T09:16:38;6.35;;;4.10;;
9072;SDS011;4572;41.642;25.370;2022-08-18T09:19:24;5.95;;;3.77;;
9072;SDS011;4572;41.642;25.370;2022-08-18T09:24:39;4.67;;;4.28;;
9072;SDS011;4572;41.642;25.370;2022-08-18T09:27:12;4.95;;;4.37;;
9072;SDS011;4572;41.642;25.370;2022-08-18T09:29:48;6.35;;;3.90;;
9072;SDS011;4572;41.642;25.370;2022-08-18T09:32:30;4.62;;;4.22;;
9072;SDS011;4572;41.642;25.370;2022-08-18T09:35:04;6.50;;;4.25;;
9072;SDS011;4572;41.642;25.370;2022-08-18T09:37:37;5.87;;;3.50;;
9072;SDS011;4572;41.642;25.370;2022-08-18T09:48:21;5.00;;;3.62;;
9072;SDS011;4572;41.642;25.370;2022-08-18T09:53:47;4.40;;;4.00;;
9072;SDS011;4572;41.642;25.370;2022-08-18T09:58:49;6.20;;;3.80;;
9072;SDS011;4572;41.642;25.370;2022-08-18T10:04:25;4.75;;;3.70;;
9072;SDS011;4572;41.642;25.370;2022-08-18T10:06:53;5.40;;;4.05;;
9072;SDS011;4572;41.642;25.370;2022-08-18T10:09:24;4.40;;;4.03;;
9072;SDS011;4572;41.642;25.370;2022-08-18T10:12:00;6.87;;;4.97;;
9072;SDS011;4572;41.642;25.370;2022-08-18T10:14:44;5.03;;;4.35;;
9072;SDS011;4572;41.642;25.370;2022-08-18T10:17:13;4.65;;;4.22;;
9072;SDS011;4572;41.642;25.370;2022-08-18T10:19:46;4.60;;;4.10;;
9072;SDS011;4572;41.642;25.370;2022-08-18T10:22:12;4.65;;;3.90;;
9072;SDS011;4572;41.642;25.370;2022-08-18T10:24:43;5.67;;;4.15;;
9072;SDS011;4572;41.642;25.370;2022-08-18T10:27:32;8.68;;;3.92;;
9072;SDS011;4572;41.642;25.370;2022-08-18T10:29:45;7.80;;;4.80;;
9072;SDS011;4572;41.642;25.370;2022-08-18T10:32:17;6.08;;;4.05;;
9072;SDS011;4572;41.642;25.370;2022-08-18T10:34:47;5.83;;;4.45;;
9072;SDS011;4572;41.642;25.370;2022-08-18T10:37:29;7.90;;;4.33;;
9072;SDS011;4572;41.642;25.370;2022-08-18T10:40:00;11.70;;;4.67;;
9072;SDS011;4572;41.642;25.370;2022-08-18T10:42:31;5.05;;;4.20;;
9072;SDS011;4572;41.642;25.370;2022-08-18T10:45:02;4.28;;;3.87;;
9072;SDS011;4572;41.642;25.370;2022-08-18T10:47:30;5.53;;;4.70;;
9072;SDS011;4572;41.642;25.370;2022-08-18T10:49:58;6.03;;;4.28;;
9072;SDS011;4572;41.642;25.370;2022-08-18T10:52:31;4.28;;;3.98;;
9072;SDS011;4572;41.642;25.370;2022-08-18T10:55:20;4.60;;;4.20;;
9072;SDS011;4572;41.642;25.370;2022-08-18T10:57:57;6.60;;;4.30;;
9072;SDS011;4572;41.642;25.370;2022-08-18T11:00:26;4.72;;;4.33;;
9072;SDS011;4572;41.642;25.370;2022-08-18T11:06:15;8.88;;;4.17;;
9072;SDS011;4572;41.642;25.370;2022-08-18T11:08:43;5.53;;;4.25;;
9072;SDS011;4572;41.642;25.370;2022-08-18T11:11:12;5.17;;;4.05;;
9072;SDS011;4572;41.642;25.370;2022-08-18T11:13:45;6.47;;;5.70;;
9072;SDS011;4572;41.642;25.370;2022-08-18T11:16:14;4.75;;;4.20;;
9072;SDS011;4572;41.642;25.370;2022-08-18T11:18:44;5.60;;;4.70;;
9072;SDS011;4572;41.642;25.370;2022-08-18T11:21:23;5.08;;;4.55;;
9072;SDS011;4572;41.642;25.370;2022-08-18T11:24:05;6.45;;;4.50;;
9072;SDS011;4572;41.642;25.370;2022-08-18T11:26:36;4.15;;;3.85;;
9072;SDS011;4572;41.642;25.370;2022-08-18T11:29:22;4.95;;;4.55;;
9072;SDS011;4572;41.642;25.370;2022-08-18T11:31:51;5.00;;;4.60;;
9072;SDS011;4572;41.642;25.370;2022-08-18T11:34:21;5.00;;;4.50;;
9072;SDS011;4572;41.642;25.370;2022-08-18T11:36:56;6.90;;;4.40;;
9072;SDS011;4572;41.642;25.370;2022-08-18T11:39:25;5.90;;;4.60;;
9072;SDS011;4572;41.642;25.370;2022-08-18T11:41:54;4.87;;;4.10;;
9072;SDS011;4572;41.642;25.370;2022-08-18T11:44:24;5.62;;;4.35;;
9072;SDS011;4572;41.642;25.370;2022-08-18T11:46:54;4.95;;;4.55;;
9072;SDS011;4572;41.642;25.370;2022-08-18T11:49:28;4.70;;;4.17;;
9072;SDS011;4572;41.642;25.370;2022-08-18T11:51:56;6.47;;;4.15;;
9072;SDS011;4572;41.642;25.370;2022-08-18T11:54:32;5.10;;;4.58;;
9072;SDS011;4572;41.642;25.370;2022-08-18T11:59:47;5.60;;;4.42;;
9072;SDS011;4572;41.642;25.370;2022-08-18T12:02:16;5.08;;;4.62;;
9072;SDS011;4572;41.642;25.370;2022-08-18T12:04:47;5.47;;;4.97;;
9072;SDS011;4572;41.642;25.370;2022-08-18T12:07:15;7.30;;;4.58;;
9072;SDS011;4572;41.642;25.370;2022-08-18T12:09:44;4.60;;;4.20;;
9072;SDS011;4572;41.642;25.370;2022-08-18T12:12:16;5.12;;;4.62;;
9072;SDS011;4572;41.642;25.370;2022-08-18T12:14:51;5.40;;;4.53;;
9072;SDS011;4572;41.642;25.370;2022-08-18T12:17:19;4.95;;;4.30;;
9072;SDS011;4572;41.642;25.370;2022-08-18T12:19:47;5.40;;;4.58;;
9072;SDS011;4572;41.642;25.370;2022-08-18T12:22:16;4.40;;;3.92;;
9072;SDS011;4572;41.642;25.370;2022-08-18T12:24:45;5.75;;;5.00;;
9072;SDS011;4572;41.642;25.370;2022-08-18T12:27:13;5.08;;;4.58;;
9072;SDS011;4572;41.642;25.370;2022-08-18T12:29:42;5.72;;;4.55;;
9072;SDS011;4572;41.642;25.370;2022-08-18T12:32:11;5.55;;;4.37;;
9072;SDS011;4572;41.642;25.370;2022-08-18T12:34:39;6.17;;;4.70;;
9072;SDS011;4572;41.642;25.370;2022-08-18T12:37:08;5.70;;;5.20;;
9072;SDS011;4572;41.642;25.370;2022-08-18T12:39:36;4.83;;;4.47;;
9072;SDS011;4572;41.642;25.370;2022-08-18T12:42:05;5.47;;;4.25;;
9072;SDS011;4572;41.642;25.370;2022-08-18T12:44:33;5.33;;;4.83;;
9072;SDS011;4572;41.642;25.370;2022-08-18T12:47:02;5.83;;;5.30;;
9072;SDS011;4572;41.642;25.370;2022-08-18T12:49:31;7.10;;;6.40;;
9072;SDS011;4572;41.642;25.370;2022-08-18T12:52:00;6.45;;;4.00;;
9072;SDS011;4572;41.642;25.370;2022-08-18T12:54:29;4.72;;;4.33;;
9072;SDS011;4572;41.642;25.370;2022-08-18T12:56:59;4.60;;;4.20;;
9072;SDS011;4572;41.642;25.370;2022-08-18T12:59:27;4.65;;;4.22;;
9072;SDS011;4572;41.642;25.370;2022-08-18T13:01:55;4.58;;;4.15;;
9072;SDS011;4572;41.642;25.370;2022-08-18T13:04:25;6.10;;;4.60;;
9072;SDS011;4572;41.642;25.370;2022-08-18T13:06:53;4.90;;;4.50;;
9072;SDS011;4572;41.642;25.370;2022-08-18T13:09:23;9.30;;;6.10;;
9072;SDS011;4572;41.642;25.370;2022-08-18T13:11:52;5.33;;;4.90;;
9072;SDS011;4572;41.642;25.370;2022-08-18T13:14:20;5.67;;;4.67;;
9072;SDS011;4572;41.642;25.370;2022-08-18T13:16:50;4.35;;;3.98;;
9072;SDS011;4572;41.642;25.370;2022-08-18T13:19:18;7.85;;;4.58;;
9072;SDS011;4572;41.642;25.370;2022-08-18T13:21:47;5.40;;;4.90;;
9072;SDS011;4572;41.642;25.370;2022-08-18T13:24:15;4.80;;;4.30;;
9072;SDS011;4572;41.642;25.370;2022-08-18T13:26:44;4.70;;;4.30;;
9072;SDS011;4572;41.642;25.370;2022-08-18T13:29:13;4.97;;;4.12;;
9072;SDS011;4572;41.642;25.370;2022-08-18T13:31:42;4.58;;;4.17;;
9072;SDS011;4572;41.642;25.370;2022-08-18T13:34:13;7.22;;;4.35;;
9072;SDS011;4572;41.642;25.370;2022-08-18T13:36:41;5.05;;;4.53;;
9072;SDS011;4572;41.642;25.370;2022-08-18T13:39:14;5.70;;;4.30;;
9072;SDS011;4572;41.642;25.370;2022-08-18T13:41:43;6.22;;;4.70;;
9072;SDS011;4572;41.642;25.370;2022-08-18T13:44:12;6.25;;;4.72;;
9072;SDS011;4572;41.642;25.370;2022-08-18T13:46:43;6.28;;;4.15;;
9072;SDS011;4572;41.642;25.370;2022-08-18T13:49:12;6.72;;;4.55;;
9072;SDS011;4572;41.642;25.370;2022-08-18T13:51:41;5.50;;;4.28;;
9072;SDS011;4572;41.642;25.370;2022-08-18T13:54:11;6.33;;;4.80;;
9072;SDS011;4572;41.642;25.370;2022-08-18T13:56:40;4.72;;;4.33;;
9072;SDS011;4572;41.642;25.370;2022-08-18T13:59:08;5.37;;;4.70;;
9072;SDS011;4572;41.642;25.370;2022-08-18T14:01:36;5.37;;;4.28;;
9072;SDS011;4572;41.642;25.370;2022-08-18T14:04:05;4.90;;;4.50;;
9072;SDS011;4572;41.642;25.370;2022-08-18T14:06:34;7.85;;;4.37;;
9072;SDS011;4572;41.642;25.370;2022-08-18T14:09:02;6.28;;;4.92;;
9072;SDS011;4572;41.642;25.370;2022-08-18T14:11:30;5.47;;;4.97;;
9072;SDS011;4572;41.642;25.370;2022-08-18T14:14:00;4.60;;;4.20;;
9072;SDS011;4572;41.642;25.370;2022-08-18T14:16:30;4.95;;;4.55;;
9072;SDS011;4572;41.642;25.370;2022-08-18T14:18:59;6.90;;;5.37;;
9072;SDS011;4572;41.642;25.370;2022-08-18T14:21:46;5.10;;;4.60;;
9072;SDS011;4572;41.642;25.370;2022-08-18T14:24:32;5.45;;;4.60;;
9072;SDS011;4572;41.642;25.370;2022-08-18T14:27:18;5.08;;;4.20;;
9072;SDS011;4572;41.642;25.370;2022-08-18T14:29:48;5.42;;;4.70;;
9072;SDS011;4572;41.642;25.370;2022-08-18T14:32:16;7.85;;;4.72;;
9072;SDS011;4572;41.642;25.370;2022-08-18T14:34:45;5.25;;;4.67;;
9072;SDS011;4572;41.642;25.370;2022-08-18T14:37:14;4.95;;;4.58;;
9072;SDS011;4572;41.642;25.370;2022-08-18T14:39:42;5.60;;;5.00;;
9072;SDS011;4572;41.642;25.370;2022-08-18T14:42:11;7.37;;;5.05;;
9072;SDS011;4572;41.642;25.370;2022-08-18T14:44:40;5.65;;;5.12;;
9072;SDS011;4572;41.642;25.370;2022-08-18T14:47:09;5.83;;;4.80;;
9072;SDS011;4572;41.642;25.370;2022-08-18T14:49:37;6.28;;;4.97;;
9072;SDS011;4572;41.642;25.370;2022-08-18T14:52:05;8.25;;;4.72;;
9072;SDS011;4572;41.642;25.370;2022-08-18T14:54:34;5.30;;;4.80;;
9072;SDS011;4572;41.642;25.370;2022-08-18T14:57:03;6.22;;;4.70;;
9072;SDS011;4572;41.642;25.370;2022-08-18T14:59:33;7.25;;;4.72;;
9072;SDS011;4572;41.642;25.370;2022-08-18T15:02:01;5.45;;;4.95;;
9072;SDS011;4572;41.642;25.370;2022-08-18T15:04:29;6.10;;;5.60;;
9072;SDS011;4572;41.642;25.370;2022-08-18T15:06:58;7.25;;;6.05;;
9072;SDS011;4572;41.642;25.370;2022-08-18T15:09:26;6.78;;;4.95;;
9072;SDS011;4572;41.642;25.370;2022-08-18T15:11:56;5.58;;;5.05;;
9072;SDS011;4572;41.642;25.370;2022-08-18T15:14:24;7.28;;;5.20;;
9072;SDS011;4572;41.642;25.370;2022-08-18T15:16:53;5.80;;;5.20;;
9072;SDS011;4572;41.642;25.370;2022-08-18T15:19:22;6.37;;;5.25;;
9072;SDS011;4572;41.642;25.370;2022-08-18T15:21:50;5.67;;;5.10;;
9072;SDS011;4572;41.642;25.370;2022-08-18T15:24:38;5.22;;;4.75;;
9072;SDS011;4572;41.642;25.370;2022-08-18T15:27:29;6.62;;;5.20;;
9072;SDS011;4572;41.642;25.370;2022-08-18T15:30:00;5.50;;;4.85;;
9072;SDS011;4572;41.642;25.370;2022-08-18T15:32:30;5.35;;;4.78;;
9072;SDS011;4572;41.642;25.370;2022-08-18T15:34:58;5.22;;;4.83;;
9072;SDS011;4572;41.642;25.370;2022-08-18T15:37:27;5.70;;;5.05;;
9072;SDS011;4572;41.642;25.370;2022-08-18T15:39:59;5.28;;;4.72;;
9072;SDS011;4572;41.642;25.370;2022-08-18T15:42:29;8.25;;;5.22;;
9072;SDS011;4572;41.642;25.370;2022-08-18T15:45:06;5.55;;;4.92;;
9072;SDS011;4572;41.642;25.370;2022-08-18T15:47:38;9.58;;;5.50;;
9072;SDS011;4572;41.642;25.370;2022-08-18T15:50:08;6.03;;;5.40;;
9072;SDS011;4572;41.642;25.370;2022-08-18T15:52:37;5.42;;;5.03;;
9072;SDS011;4572;41.642;25.370;2022-08-18T15:55:06;7.55;;;5.40;;
9072;SDS011;4572;41.642;25.370;2022-08-18T15:57:35;5.50;;;5.00;;
9072;SDS011;4572;41.642;25.370;2022-08-18T16:00:04;6.90;;;5.37;;
9072;SDS011;4572;41.642;25.370;2022-08-18T16:02:32;10.18;;;6.30;;
9072;SDS011;4572;41.642;25.370;2022-08-18T16:05:00;6.42;;;5.83;;
9072;SDS011;4572;41.642;25.370;2022-08-18T16:07:29;5.50;;;5.05;;
9072;SDS011;4572;41.642;25.370;2022-08-18T16:09:57;5.95;;;5.28;;
9072;SDS011;4572;41.642;25.370;2022-08-18T16:12:25;6.55;;;5.58;;
9072;SDS011;4572;41.642;25.370;2022-08-18T16:14:53;5.35;;;4.85;;
9072;SDS011;4572;41.642;25.370;2022-08-18T16:17:23;6.65;;;6.05;;
9072;SDS011;4572;41.642;25.370;2022-08-18T16:19:51;6.12;;;5.62;;
9072;SDS011;4572;41.642;25.370;2022-08-18T16:22:19;8.20;;;7.03;;
9072;SDS011;4572;41.642;25.370;2022-08-18T16:24:49;14.10;;;6.37;;
9072;SDS011;4572;41.642;25.370;2022-08-18T16:27:17;11.18;;;5.83;;
9072;SDS011;4572;41.642;25.370;2022-08-18T16:29:45;6.03;;;5.53;;
9072;SDS011;4572;41.642;25.370;2022-08-18T16:32:13;6.15;;;5.65;;
9072;SDS011;4572;41.642;25.370;2022-08-18T16:34:42;6.87;;;6.20;;
9072;SDS011;4572;41.642;25.370;2022-08-18T16:37:10;7.47;;;6.60;;
9072;SDS011;4572;41.642;25.370;2022-08-18T16:39:38;10.30;;;7.97;;
9072;SDS011;4572;41.642;25.370;2022-08-18T16:42:07;10.88;;;8.08;;